sensor_id;sensor_type;location;lat;lon;timestamp;pressure;altitude;pressure_sealevel;temperature;humidity
7018;BME280;3549;42.162;24.726;2023-03-25T00:01:06;47649.78;;;-141.97;64.98
7018;BME280;3549;42.162;24.726;2023-03-25T00:03:38;47672.84;;;-141.97;64.57
7018;BME280;3549;42.162;24.726;2023-03-25T00:06:12;47597.88;;;-141.97;64.61
7018;BME280;3549;42.162;24.726;2023-03-25T00:08:37;47513.31;;;-141.97;64.51
7018;BME280;3549;42.162;24.726;2023-03-25T00:11:04;47649.78;;;-141.97;64.72
7018;BME280;3549;42.162;24.726;2023-03-25T00:13:31;47690.16;;;-141.97;64.73
7018;BME280;3549;42.162;24.726;2023-03-25T00:15:57;47569.06;;;-141.97;64.25
7018;BME280;3549;42.162;24.726;2023-03-25T00:18:27;47609.41;;;-141.97;64.51
7018;BME280;3549;42.162;24.726;2023-03-25T00:20:54;47615.19;;;-141.97;64.32
7018;BME280;3549;42.162;24.726;2023-03-25T00:23:21;47638.25;;;-141.97;64.10
7018;BME280;3549;42.162;24.726;2023-03-25T00:25:47;47686.31;;;-141.97;64.76
7018;BME280;3549;42.162;24.726;2023-03-25T00:28:14;47661.31;;;-141.97;66.45
7018;BME280;3549;42.162;24.726;2023-03-25T00:30:41;47726.66;;;-141.97;66.88
7018;BME280;3549;42.162;24.726;2023-03-25T00:33:06;47524.84;;;-141.97;66.87
7018;BME280;3549;42.162;24.726;2023-03-25T00:35:36;47669.00;;;-141.97;66.31
7018;BME280;3549;42.162;24.726;2023-03-25T00:38:02;47574.81;;;-141.97;66.97
7018;BME280;3549;42.162;24.726;2023-03-25T00:40:30;47549.84;;;-141.97;67.79
7018;BME280;3549;42.162;24.726;2023-03-25T00:43:03;47669.00;;;-141.97;68.37
7018;BME280;3549;42.162;24.726;2023-03-25T00:45:29;47624.78;;;-141.97;69.90
7018;BME280;3549;42.162;24.726;2023-03-25T00:47:55;47676.69;;;-141.97;69.36
7018;BME280;3549;42.162;24.726;2023-03-25T00:50:21;47551.75;;;-141.97;69.71
7018;BME280;3549;42.162;24.726;2023-03-25T00:52:47;47678.63;;;-141.97;69.80
7018;BME280;3549;42.162;24.726;2023-03-25T00:55:13;47603.66;;;-141.97;70.57
7018;BME280;3549;42.162;24.726;2023-03-25T00:57:38;47680.53;;;-141.97;72.04
7018;BME280;3549;42.162;24.726;2023-03-25T01:00:06;47634.41;;;-141.97;73.57
7018;BME280;3549;42.162;24.726;2023-03-25T01:02:32;47722.81;;;-141.97;73.91
7018;BME280;3549;42.162;24.726;2023-03-25T01:04:58;47613.25;;;-141.97;74.65
7018;BME280;3549;42.162;24.726;2023-03-25T01:07:24;47684.38;;;-141.97;75.14
7018;BME280;3549;42.162;24.726;2023-03-25T01:09:50;47732.44;;;-141.97;75.70
7018;BME280;3549;42.162;24.726;2023-03-25T01:12:16;47657.47;;;-141.97;75.63
7018;BME280;3549;42.162;24.726;2023-03-25T01:14:43;47738.19;;;-141.97;75.87
7018;BME280;3549;42.162;24.726;2023-03-25T01:17:09;47763.19;;;-141.97;76.48
7018;BME280;3549;42.162;24.726;2023-03-25T01:19:35;47634.41;;;-141.97;75.85
7018;BME280;3549;42.162;24.726;2023-03-25T01:22:00;47611.34;;;-141.97;75.59
7018;BME280;3549;42.162;24.726;2023-03-25T01:24:26;47634.41;;;-141.97;75.33
7018;BME280;3549;42.162;24.726;2023-03-25T01:26:51;47605.56;;;-141.97;75.59
7018;BME280;3549;42.162;24.726;2023-03-25T01:29:19;47605.56;;;-141.97;76.08
7018;BME280;3549;42.162;24.726;2023-03-25T01:31:45;47665.16;;;-141.97;75.69
7018;BME280;3549;42.162;24.726;2023-03-25T01:34:12;47684.38;;;-141.97;76.25
7018;BME280;3549;42.162;24.726;2023-03-25T01:36:38;47597.88;;;-141.97;77.09
7018;BME280;3549;42.162;24.726;2023-03-25T01:39:06;47665.16;;;-141.97;76.42
7018;BME280;3549;42.162;24.726;2023-03-25T01:41:34;47632.47;;;-141.97;76.57
7018;BME280;3549;42.162;24.726;2023-03-25T01:45:02;47657.47;;;-141.97;76.66
7018;BME280;3549;42.162;24.726;2023-03-25T01:46:54;47626.72;;;-141.97;76.54
7018;BME280;3549;42.162;24.726;2023-03-25T01:49:24;47703.59;;;-141.97;77.11
7018;BME280;3549;42.162;24.726;2023-03-25T01:51:58;47711.28;;;-141.97;77.93
7018;BME280;3549;42.162;24.726;2023-03-25T01:54:26;47742.03;;;-141.97;77.46
7018;BME280;3549;42.162;24.726;2023-03-25T01:56:53;47653.63;;;-141.97;77.25
7018;BME280;3549;42.162;24.726;2023-03-25T01:59:22;47711.28;;;-141.97;77.18
7018;BME280;3549;42.162;24.726;2023-03-25T02:01:49;47569.06;;;-141.97;76.34
7018;BME280;3549;42.162;24.726;2023-03-25T02:04:23;47768.94;;;-141.97;75.98
7018;BME280;3549;42.162;24.726;2023-03-25T02:06:52;47644.00;;;-141.97;75.43
7018;BME280;3549;42.162;24.726;2023-03-25T02:09:21;47638.25;;;-141.97;75.18
7018;BME280;3549;42.162;24.726;2023-03-25T02:11:48;47597.88;;;-141.97;75.19
7018;BME280;3549;42.162;24.726;2023-03-25T02:14:16;47667.06;;;-141.97;74.59
7018;BME280;3549;42.162;24.726;2023-03-25T02:25:12;47684.38;;;-141.97;73.62
7018;BME280;3549;42.162;24.726;2023-03-25T02:33:45;47684.38;;;-141.97;74.08
7018;BME280;3549;42.162;24.726;2023-03-25T02:36:38;47672.84;;;-141.97;74.48
7018;BME280;3549;42.162;24.726;2023-03-25T02:39:27;47763.19;;;-141.97;74.23
7018;BME280;3549;42.162;24.726;2023-03-25T02:42:14;47753.56;;;-141.97;75.09
7018;BME280;3549;42.162;24.726;2023-03-25T02:47:15;47674.78;;;-141.97;75.19
7018;BME280;3549;42.162;24.726;2023-03-25T02:49:47;47678.63;;;-141.97;74.92
7018;BME280;3549;42.162;24.726;2023-03-25T02:52:27;47647.84;;;-141.97;74.43
7018;BME280;3549;42.162;24.726;2023-03-25T02:54:57;47611.34;;;-141.97;74.31
7018;BME280;3549;42.162;24.726;2023-03-25T02:57:27;47688.22;;;-141.97;73.85
7018;BME280;3549;42.162;24.726;2023-03-25T02:59:53;47649.78;;;-141.97;72.96
7018;BME280;3549;42.162;24.726;2023-03-25T03:02:20;47692.06;;;-141.97;73.33
7018;BME280;3549;42.162;24.726;2023-03-25T03:07:25;47692.06;;;-141.97;74.04
7018;BME280;3549;42.162;24.726;2023-03-25T03:12:40;47661.31;;;-141.97;73.20
7018;BME280;3549;42.162;24.726;2023-03-25T03:18:22;47674.78;;;-141.97;74.09
7018;BME280;3549;42.162;24.726;2023-03-25T03:23:58;47669.00;;;-141.97;74.61
7018;BME280;3549;42.162;24.726;2023-03-25T03:29:18;47695.91;;;-141.97;74.20
7018;BME280;3549;42.162;24.726;2023-03-25T03:34:32;47745.88;;;-141.97;74.17
7018;BME280;3549;42.162;24.726;2023-03-25T03:37:02;47686.31;;;-141.97;73.93
7018;BME280;3549;42.162;24.726;2023-03-25T03:39:31;47770.88;;;-141.97;73.77
7018;BME280;3549;42.162;24.726;2023-03-25T03:42:29;47665.16;;;-141.97;73.66
7018;BME280;3549;42.162;24.726;2023-03-25T03:45:03;47644.00;;;-141.97;73.84
7018;BME280;3549;42.162;24.726;2023-03-25T03:47:37;47665.16;;;-141.97;73.39
7018;BME280;3549;42.162;24.726;2023-03-25T03:50:07;47738.19;;;-141.97;73.17
7018;BME280;3549;42.162;24.726;2023-03-25T03:52:44;47647.84;;;-141.97;73.19
7018;BME280;3549;42.162;24.726;2023-03-25T03:55:14;47655.53;;;-141.97;73.25
7018;BME280;3549;42.162;24.726;2023-03-25T03:57:50;47619.03;;;-141.97;73.35
7018;BME280;3549;42.162;24.726;2023-03-25T04:00:34;47676.69;;;-141.97;73.19
7018;BME280;3549;42.162;24.726;2023-03-25T04:03:13;47622.88;;;-141.97;73.50
7018;BME280;3549;42.162;24.726;2023-03-25T04:05:42;47676.69;;;-141.97;73.26
7018;BME280;3549;42.162;24.726;2023-03-25T04:08:20;47626.72;;;-141.97;73.39
7018;BME280;3549;42.162;24.726;2023-03-25T04:13:44;47751.66;;;-141.97;73.67
7018;BME280;3549;42.162;24.726;2023-03-25T04:16:11;47645.94;;;-141.97;73.16
7018;BME280;3549;42.162;24.726;2023-03-25T04:18:37;47615.19;;;-141.97;73.92
7018;BME280;3549;42.162;24.726;2023-03-25T04:21:03;47605.56;;;-141.97;73.98
7018;BME280;3549;42.162;24.726;2023-03-25T04:23:29;47619.03;;;-141.97;74.27
7018;BME280;3549;42.162;24.726;2023-03-25T04:25:55;47626.72;;;-141.97;74.87
7018;BME280;3549;42.162;24.726;2023-03-25T04:28:20;47703.59;;;-141.97;75.73
7018;BME280;3549;42.162;24.726;2023-03-25T04:30:48;47688.22;;;-141.97;75.66
7018;BME280;3549;42.162;24.726;2023-03-25T04:33:23;47701.69;;;-141.97;75.58
7018;BME280;3549;42.162;24.726;2023-03-25T04:35:49;47609.41;;;-141.97;76.02
7018;BME280;3549;42.162;24.726;2023-03-25T04:38:16;47619.03;;;-141.97;76.17
7018;BME280;3549;42.162;24.726;2023-03-25T04:40:45;47672.84;;;-141.97;75.69
7018;BME280;3549;42.162;24.726;2023-03-25T04:43:14;47640.16;;;-141.97;75.07
7018;BME280;3549;42.162;24.726;2023-03-25T04:45:40;47669.00;;;-141.97;75.06
7018;BME280;3549;42.162;24.726;2023-03-25T04:48:22;47688.22;;;-141.97;74.49
7018;BME280;3549;42.162;24.726;2023-03-25T04:50:50;47619.03;;;-141.97;74.86
7018;BME280;3549;42.162;24.726;2023-03-25T04:53:16;47590.19;;;-141.97;74.79
7018;BME280;3549;42.162;24.726;2023-03-25T04:55:42;47584.44;;;-141.97;74.14
7018;BME280;3549;42.162;24.726;2023-03-25T04:58:12;47592.13;;;-141.97;73.88
7018;BME280;3549;42.162;24.726;2023-03-25T05:00:40;47699.75;;;-141.97;73.83
7018;BME280;3549;42.162;24.726;2023-03-25T05:03:08;47628.63;;;-141.97;74.22
7018;BME280;3549;42.162;24.726;2023-03-25T05:05:34;47622.88;;;-141.97;73.91
7018;BME280;3549;42.162;24.726;2023-03-25T05:08:00;47742.03;;;-141.97;75.29
7018;BME280;3549;42.162;24.726;2023-03-25T05:10:26;47595.97;;;-141.97;76.25
7018;BME280;3549;42.162;24.726;2023-03-25T05:12:57;47674.78;;;-141.97;76.60
7018;BME280;3549;42.162;24.726;2023-03-25T05:15:23;47634.41;;;-141.97;77.03
7018;BME280;3549;42.162;24.726;2023-03-25T05:17:49;47595.97;;;-141.97;76.34
7018;BME280;3549;42.162;24.726;2023-03-25T05:20:14;47717.06;;;-141.97;75.18
7018;BME280;3549;42.162;24.726;2023-03-25T05:22:40;47561.38;;;-141.97;74.52
7018;BME280;3549;42.162;24.726;2023-03-25T05:25:08;47647.84;;;-141.97;74.32
7018;BME280;3549;42.162;24.726;2023-03-25T05:27:35;47640.16;;;-141.97;73.31
7018;BME280;3549;42.162;24.726;2023-03-25T05:30:00;47755.50;;;-141.97;72.35
7018;BME280;3549;42.162;24.726;2023-03-25T05:32:27;47692.06;;;-141.97;73.11
7018;BME280;3549;42.162;24.726;2023-03-25T05:35:00;47674.78;;;-141.97;73.42
7018;BME280;3549;42.162;24.726;2023-03-25T05:37:25;47659.38;;;-141.97;72.99
7018;BME280;3549;42.162;24.726;2023-03-25T05:39:51;47734.34;;;-141.97;72.73
7018;BME280;3549;42.162;24.726;2023-03-25T05:42:17;47688.22;;;-141.97;72.26
7018;BME280;3549;42.162;24.726;2023-03-25T05:44:47;47620.94;;;-141.97;72.76
7018;BME280;3549;42.162;24.726;2023-03-25T05:47:25;47686.31;;;-141.97;72.16
7018;BME280;3549;42.162;24.726;2023-03-25T05:49:51;47688.22;;;-141.97;71.54
7018;BME280;3549;42.162;24.726;2023-03-25T05:52:18;47649.78;;;-141.97;71.72
7018;BME280;3549;42.162;24.726;2023-03-25T05:54:45;47653.63;;;-141.97;71.74
7018;BME280;3549;42.162;24.726;2023-03-25T05:57:12;47661.31;;;-141.97;73.06
7018;BME280;3549;42.162;24.726;2023-03-25T05:59:37;47584.44;;;-141.97;73.68
7018;BME280;3549;42.162;24.726;2023-03-25T06:02:06;47768.94;;;-141.97;72.95
7018;BME280;3549;42.162;24.726;2023-03-25T06:04:35;47699.75;;;-141.97;72.00
7018;BME280;3549;42.162;24.726;2023-03-25T06:07:09;47688.22;;;-141.97;70.84
7018;BME280;3549;42.162;24.726;2023-03-25T06:09:46;47707.44;;;-141.97;70.53
7018;BME280;3549;42.162;24.726;2023-03-25T06:12:17;47680.53;;;-141.97;69.33
7018;BME280;3549;42.162;24.726;2023-03-25T06:14:44;47707.44;;;-141.97;69.23
7018;BME280;3549;42.162;24.726;2023-03-25T06:17:14;47707.44;;;-141.97;69.82
7018;BME280;3549;42.162;24.726;2023-03-25T06:19:40;47711.28;;;-141.97;68.60
7018;BME280;3549;42.162;24.726;2023-03-25T06:22:07;47653.63;;;-141.97;67.27
7018;BME280;3549;42.162;24.726;2023-03-25T06:24:37;47607.50;;;-141.97;66.74
7018;BME280;3549;42.162;24.726;2023-03-25T06:27:03;47559.44;;;-141.97;65.79
7018;BME280;3549;42.162;24.726;2023-03-25T06:29:34;47663.22;;;-141.97;65.19
7018;BME280;3549;42.162;24.726;2023-03-25T06:32:04;47657.47;;;-141.97;64.27
7018;BME280;3549;42.162;24.726;2023-03-25T06:34:30;47665.16;;;-141.97;64.11
7018;BME280;3549;42.162;24.726;2023-03-25T06:36:57;47745.88;;;-141.97;65.41
7018;BME280;3549;42.162;24.726;2023-03-25T06:39:23;47576.75;;;-141.97;65.65
7018;BME280;3549;42.162;24.726;2023-03-25T06:41:48;47784.34;;;-141.97;64.70
7018;BME280;3549;42.162;24.726;2023-03-25T06:44:14;47674.78;;;-141.97;62.57
7018;BME280;3549;42.162;24.726;2023-03-25T06:46:41;47580.59;;;-141.97;61.14
7018;BME280;3549;42.162;24.726;2023-03-25T06:49:06;47780.47;;;-141.97;59.27
7018;BME280;3549;42.162;24.726;2023-03-25T06:51:32;47542.16;;;-141.97;59.28
7018;BME280;3549;42.162;24.726;2023-03-25T06:53:57;47588.28;;;-141.97;58.53
7018;BME280;3549;42.162;24.726;2023-03-25T06:56:22;47793.94;;;-141.97;58.10
7018;BME280;3549;42.162;24.726;2023-03-25T06:58:48;47607.50;;;-141.97;57.43
7018;BME280;3549;42.162;24.726;2023-03-25T07:01:13;47778.56;;;-141.97;56.84
7018;BME280;3549;42.162;24.726;2023-03-25T07:03:39;47582.50;;;-141.97;56.43
7018;BME280;3549;42.162;24.726;2023-03-25T07:06:05;47642.09;;;-141.97;54.62
7018;BME280;3549;42.162;24.726;2023-03-25T07:08:31;47588.28;;;-141.97;55.00
7018;BME280;3549;42.162;24.726;2023-03-25T07:11:01;47657.47;;;-141.97;54.36
7018;BME280;3549;42.162;24.726;2023-03-25T07:13:27;47742.03;;;-141.97;53.64
7018;BME280;3549;42.162;24.726;2023-03-25T07:15:54;47669.00;;;-141.97;52.38
7018;BME280;3549;42.162;24.726;2023-03-25T07:18:20;47738.19;;;-141.97;52.17
7018;BME280;3549;42.162;24.726;2023-03-25T07:20:45;47768.94;;;-141.97;51.92
7018;BME280;3549;42.162;24.726;2023-03-25T07:23:11;47430.66;;;-141.97;52.58
7018;BME280;3549;42.162;24.726;2023-03-25T07:25:36;47569.06;;;-141.97;51.48
7018;BME280;3549;42.162;24.726;2023-03-25T07:28:02;47640.16;;;-141.97;50.13
7018;BME280;3549;42.162;24.726;2023-03-25T07:30:27;47559.44;;;-141.97;49.68
7018;BME280;3549;42.162;24.726;2023-03-25T07:32:53;47501.78;;;-141.97;49.39
7018;BME280;3549;42.162;24.726;2023-03-25T07:35:18;47507.53;;;-141.97;49.96
7018;BME280;3549;42.162;24.726;2023-03-25T07:37:43;47813.16;;;-141.97;48.89
7018;BME280;3549;42.162;24.726;2023-03-25T07:40:09;47497.94;;;-141.97;47.11
7018;BME280;3549;42.162;24.726;2023-03-25T07:42:35;47472.94;;;-141.97;46.03
7018;BME280;3549;42.162;24.726;2023-03-25T07:45:02;47582.50;;;-141.97;46.27
7018;BME280;3549;42.162;24.726;2023-03-25T07:47:27;47544.06;;;-141.97;45.35
7018;BME280;3549;42.162;24.726;2023-03-25T07:49:53;47701.69;;;-141.97;44.62
7018;BME280;3549;42.162;24.726;2023-03-25T07:52:18;47622.88;;;-141.97;43.64
7018;BME280;3549;42.162;24.726;2023-03-25T07:54:44;47549.84;;;-141.97;43.96
7018;BME280;3549;42.162;24.726;2023-03-25T07:57:09;47645.94;;;-141.97;43.53
7018;BME280;3549;42.162;24.726;2023-03-25T07:59:35;47594.03;;;-141.97;43.52
7018;BME280;3549;42.162;24.726;2023-03-25T08:02:00;47749.72;;;-141.97;42.96
7018;BME280;3549;42.162;24.726;2023-03-25T08:04:26;47615.19;;;-141.97;42.91
7018;BME280;3549;42.162;24.726;2023-03-25T08:06:52;47653.63;;;-141.97;42.13
7018;BME280;3549;42.162;24.726;2023-03-25T08:09:17;47642.09;;;-141.97;42.28
7018;BME280;3549;42.162;24.726;2023-03-25T08:11:42;47607.50;;;-141.97;42.09
7018;BME280;3549;42.162;24.726;2023-03-25T08:14:08;47722.81;;;-141.97;41.96
7018;BME280;3549;42.162;24.726;2023-03-25T08:16:33;47692.06;;;-141.97;42.09
7018;BME280;3549;42.162;24.726;2023-03-25T08:18:58;47592.13;;;-141.97;41.69
7018;BME280;3549;42.162;24.726;2023-03-25T08:21:24;47532.53;;;-141.97;40.82
7018;BME280;3549;42.162;24.726;2023-03-25T08:23:54;47530.59;;;-141.97;40.12
7018;BME280;3549;42.162;24.726;2023-03-25T08:26:26;47734.34;;;-141.97;39.82
7018;BME280;3549;42.162;24.726;2023-03-25T08:28:54;47634.41;;;-141.97;40.09
7018;BME280;3549;42.162;24.726;2023-03-25T08:31:22;47619.03;;;-141.97;39.77
7018;BME280;3549;42.162;24.726;2023-03-25T08:33:48;47588.28;;;-141.97;39.46
7018;BME280;3549;42.162;24.726;2023-03-25T08:36:13;47765.09;;;-141.97;39.70
7018;BME280;3549;42.162;24.726;2023-03-25T08:38:44;47517.16;;;-141.97;39.26
7018;BME280;3549;42.162;24.726;2023-03-25T08:41:09;47644.00;;;-141.97;38.56
7018;BME280;3549;42.162;24.726;2023-03-25T08:43:34;47524.84;;;-141.97;37.86
7018;BME280;3549;42.162;24.726;2023-03-25T08:46:00;47492.16;;;-141.97;38.34
7018;BME280;3549;42.162;24.726;2023-03-25T08:48:25;47584.44;;;-141.97;37.48
7018;BME280;3549;42.162;24.726;2023-03-25T08:50:51;47440.28;;;-141.97;37.68
7018;BME280;3549;42.162;24.726;2023-03-25T08:53:17;47480.63;;;-141.97;37.46
7018;BME280;3549;42.162;24.726;2023-03-25T08:55:42;47684.38;;;-141.97;37.66
7018;BME280;3549;42.162;24.726;2023-03-25T08:58:08;47734.34;;;-141.97;37.33
7018;BME280;3549;42.162;24.726;2023-03-25T09:00:34;47745.88;;;-141.97;37.41
7018;BME280;3549;42.162;24.726;2023-03-25T09:03:02;47490.25;;;-141.97;36.46
7018;BME280;3549;42.162;24.726;2023-03-25T09:05:28;47595.97;;;-141.97;36.24
7018;BME280;3549;42.162;24.726;2023-03-25T09:07:54;47570.97;;;-141.97;35.93
7018;BME280;3549;42.162;24.726;2023-03-25T09:10:20;47559.44;;;-141.97;35.70
7018;BME280;3549;42.162;24.726;2023-03-25T09:12:45;47422.97;;;-141.97;35.58
7018;BME280;3549;42.162;24.726;2023-03-25T09:15:11;47732.44;;;-141.97;35.54
7018;BME280;3549;42.162;24.726;2023-03-25T09:17:37;47569.06;;;-141.97;35.07
7018;BME280;3549;42.162;24.726;2023-03-25T09:20:04;47555.59;;;-141.97;34.57
7018;BME280;3549;42.162;24.726;2023-03-25T09:22:35;47768.94;;;-141.97;34.50
7018;BME280;3549;42.162;24.726;2023-03-25T09:25:01;47415.28;;;-141.97;34.35
7018;BME280;3549;42.162;24.726;2023-03-25T09:27:27;47534.44;;;-141.97;34.30
7018;BME280;3549;42.162;24.726;2023-03-25T09:29:52;47580.59;;;-141.97;34.81
7018;BME280;3549;42.162;24.726;2023-03-25T09:32:17;47365.31;;;-141.97;34.78
7018;BME280;3549;42.162;24.726;2023-03-25T09:34:43;47463.34;;;-141.97;34.45
7018;BME280;3549;42.162;24.726;2023-03-25T09:37:09;47751.66;;;-141.97;34.97
7018;BME280;3549;42.162;24.726;2023-03-25T09:39:35;47597.88;;;-141.97;34.16
7018;BME280;3549;42.162;24.726;2023-03-25T09:42:31;47567.13;;;-141.97;34.53
7018;BME280;3549;42.162;24.726;2023-03-25T09:47:28;47461.41;;;-141.97;33.47
7018;BME280;3549;42.162;24.726;2023-03-25T09:49:59;47576.75;;;-141.97;33.12
7018;BME280;3549;42.162;24.726;2023-03-25T09:55:19;47521.00;;;-141.97;31.85
7018;BME280;3549;42.162;24.726;2023-03-25T09:57:47;47480.63;;;-141.97;32.12
7018;BME280;3549;42.162;24.726;2023-03-25T10:00:18;47526.75;;;-141.97;32.42
7018;BME280;3549;42.162;24.726;2023-03-25T10:05:48;47519.06;;;-141.97;31.46
7018;BME280;3549;42.162;24.726;2023-03-25T10:11:32;47542.16;;;-141.97;31.20
7018;BME280;3549;42.162;24.726;2023-03-25T10:14:17;47540.22;;;-141.97;31.02
7018;BME280;3549;42.162;24.726;2023-03-25T10:16:54;47557.53;;;-141.97;31.09
7018;BME280;3549;42.162;24.726;2023-03-25T10:22:15;47540.22;;;-141.97;31.14
7018;BME280;3549;42.162;24.726;2023-03-25T10:24:55;47713.22;;;-141.97;31.21
7018;BME280;3549;42.162;24.726;2023-03-25T10:32:50;47524.84;;;-141.97;31.22
7018;BME280;3549;42.162;24.726;2023-03-25T10:35:20;47546.00;;;-141.97;31.37
7018;BME280;3549;42.162;24.726;2023-03-25T10:37:48;47422.97;;;-141.97;31.24
7018;BME280;3549;42.162;24.726;2023-03-25T10:45:24;47549.84;;;-141.97;31.30
7018;BME280;3549;42.162;24.726;2023-03-25T10:47:53;47574.81;;;-141.97;31.00
7018;BME280;3549;42.162;24.726;2023-03-25T10:50:20;47615.19;;;-141.97;30.82
7018;BME280;3549;42.162;24.726;2023-03-25T10:52:47;47569.06;;;-141.97;30.72
7018;BME280;3549;42.162;24.726;2023-03-25T10:55:25;47513.31;;;-141.97;30.25
7018;BME280;3549;42.162;24.726;2023-03-25T10:57:53;47569.06;;;-141.97;30.46
7018;BME280;3549;42.162;24.726;2023-03-25T11:00:20;47499.84;;;-141.97;30.00
7018;BME280;3549;42.162;24.726;2023-03-25T11:02:49;47538.28;;;-141.97;30.32
7018;BME280;3549;42.162;24.726;2023-03-25T11:05:18;47538.28;;;-141.97;31.02
7018;BME280;3549;42.162;24.726;2023-03-25T11:07:49;47549.84;;;-141.97;30.98
7018;BME280;3549;42.162;24.726;2023-03-25T11:10:24;47484.47;;;-141.97;31.40
7018;BME280;3549;42.162;24.726;2023-03-25T11:12:52;47615.19;;;-141.97;31.41
7018;BME280;3549;42.162;24.726;2023-03-25T11:15:39;47542.16;;;-141.97;31.61
7018;BME280;3549;42.162;24.726;2023-03-25T11:18:11;47323.03;;;-141.97;31.43
7018;BME280;3549;42.162;24.726;2023-03-25T11:20:44;47349.94;;;-141.97;31.13
7018;BME280;3549;42.162;24.726;2023-03-25T11:23:41;47461.41;;;-141.97;31.44
7018;BME280;3549;42.162;24.726;2023-03-25T11:26:12;47530.59;;;-141.97;30.98
7018;BME280;3549;42.162;24.726;2023-03-25T11:28:47;47534.44;;;-141.97;30.69
7018;BME280;3549;42.162;24.726;2023-03-25T11:31:16;47536.38;;;-141.97;30.69
7018;BME280;3549;42.162;24.726;2023-03-25T11:33:44;47511.38;;;-141.97;30.79
7018;BME280;3549;42.162;24.726;2023-03-25T11:36:24;47701.69;;;-141.97;31.05
7018;BME280;3549;42.162;24.726;2023-03-25T11:38:56;47505.63;;;-141.97;30.83
7018;BME280;3549;42.162;24.726;2023-03-25T11:41:22;47472.94;;;-141.97;30.28
7018;BME280;3549;42.162;24.726;2023-03-25T11:43:48;47484.47;;;-141.97;29.98
7018;BME280;3549;42.162;24.726;2023-03-25T11:46:16;47549.84;;;-141.97;29.83
7018;BME280;3549;42.162;24.726;2023-03-25T11:48:43;47526.75;;;-141.97;30.05
7018;BME280;3549;42.162;24.726;2023-03-25T11:51:14;47519.06;;;-141.97;29.61
7018;BME280;3549;42.162;24.726;2023-03-25T11:54:00;47472.94;;;-141.97;28.93
7018;BME280;3549;42.162;24.726;2023-03-25T11:56:38;47522.91;;;-141.97;29.15
7018;BME280;3549;42.162;24.726;2023-03-25T11:59:25;47661.31;;;-141.97;28.76
7018;BME280;3549;42.162;24.726;2023-03-25T12:02:08;47490.25;;;-141.97;28.36
7018;BME280;3549;42.162;24.726;2023-03-25T12:07:20;47319.19;;;-141.97;27.97
7018;BME280;3549;42.162;24.726;2023-03-25T12:09:57;47434.50;;;-141.97;27.76
7018;BME280;3549;42.162;24.726;2023-03-25T12:12:40;47476.78;;;-141.97;27.63
7018;BME280;3549;42.162;24.726;2023-03-25T12:15:35;47472.94;;;-141.97;27.25
7018;BME280;3549;42.162;24.726;2023-03-25T12:26:07;47472.94;;;-141.97;27.21
7018;BME280;3549;42.162;24.726;2023-03-25T12:37:02;47442.19;;;-141.97;26.01
7018;BME280;3549;42.162;24.726;2023-03-25T12:56:43;47494.09;;;-141.97;28.35
7018;BME280;3549;42.162;24.726;2023-03-25T12:59:47;47453.72;;;-141.97;27.84
7018;BME280;3549;42.162;24.726;2023-03-25T13:08:41;47488.31;;;-141.97;28.43
7018;BME280;3549;42.162;24.726;2023-03-25T13:11:25;47442.19;;;-141.97;28.51
7018;BME280;3549;42.162;24.726;2023-03-25T13:13:54;47486.41;;;-141.97;28.11
7018;BME280;3549;42.162;24.726;2023-03-25T13:16:24;47636.31;;;-141.97;28.46
7018;BME280;3549;42.162;24.726;2023-03-25T13:19:15;47471.03;;;-141.97;29.45
7018;BME280;3549;42.162;24.726;2023-03-25T13:21:47;47469.09;;;-141.97;29.42
7018;BME280;3549;42.162;24.726;2023-03-25T13:24:22;47515.22;;;-141.97;29.31
7018;BME280;3549;42.162;24.726;2023-03-25T13:26:50;47449.88;;;-141.97;29.02
7018;BME280;3549;42.162;24.726;2023-03-25T13:29:30;47524.84;;;-141.97;29.24
7018;BME280;3549;42.162;24.726;2023-03-25T13:32:02;47745.88;;;-141.97;28.29
7018;BME280;3549;42.162;24.726;2023-03-25T13:34:40;47434.50;;;-141.97;27.65
7018;BME280;3549;42.162;24.726;2023-03-25T13:37:18;47422.97;;;-141.97;27.01
7018;BME280;3549;42.162;24.726;2023-03-25T13:40:10;47421.06;;;-141.97;26.32
7018;BME280;3549;42.162;24.726;2023-03-25T13:45:21;47390.31;;;-141.97;25.89
7018;BME280;3549;42.162;24.726;2023-03-25T13:48:10;47411.44;;;-141.97;25.92
7018;BME280;3549;42.162;24.726;2023-03-25T13:50:37;47407.59;;;-141.97;26.53
7018;BME280;3549;42.162;24.726;2023-03-25T14:13:42;47432.59;;;-141.97;27.14
7018;BME280;3549;42.162;24.726;2023-03-25T14:16:13;47478.72;;;-141.97;27.74
7018;BME280;3549;42.162;24.726;2023-03-25T14:18:48;47342.25;;;-141.97;28.39
7018;BME280;3549;42.162;24.726;2023-03-25T14:23:47;47496.00;;;-141.97;29.23
7018;BME280;3549;42.162;24.726;2023-03-25T14:26:16;47442.19;;;-141.97;29.92
7018;BME280;3549;42.162;24.726;2023-03-25T14:28:44;47353.78;;;-141.97;30.13
7018;BME280;3549;42.162;24.726;2023-03-25T14:44:42;47469.09;;;-141.97;31.01
7018;BME280;3549;42.162;24.726;2023-03-25T14:52:29;47530.59;;;-141.97;31.24
7018;BME280;3549;42.162;24.726;2023-03-25T14:55:00;47436.44;;;-141.97;31.07
7018;BME280;3549;42.162;24.726;2023-03-25T14:57:39;47522.91;;;-141.97;30.85
7018;BME280;3549;42.162;24.726;2023-03-25T15:00:25;47411.44;;;-141.97;31.01
7018;BME280;3549;42.162;24.726;2023-03-25T15:03:07;47546.00;;;-141.97;31.06
7018;BME280;3549;42.162;24.726;2023-03-25T15:05:36;47595.97;;;-141.97;31.13
7018;BME280;3549;42.162;24.726;2023-03-25T15:10:47;47549.84;;;-141.97;31.95
7018;BME280;3549;42.162;24.726;2023-03-25T15:13:38;47542.16;;;-141.97;33.23
7018;BME280;3549;42.162;24.726;2023-03-25T15:19:21;47538.28;;;-141.97;33.01
7018;BME280;3549;42.162;24.726;2023-03-25T15:24:38;47767.03;;;-141.97;33.69
7018;BME280;3549;42.162;24.726;2023-03-25T15:30:26;47532.53;;;-141.97;34.35
7018;BME280;3549;42.162;24.726;2023-03-25T15:39:19;47584.44;;;-141.97;35.39
7018;BME280;3549;42.162;24.726;2023-03-25T15:47:08;47549.84;;;-141.97;36.08
7018;BME280;3549;42.162;24.726;2023-03-25T15:55:36;47547.91;;;-141.97;37.22
7018;BME280;3549;42.162;24.726;2023-03-25T15:58:06;47559.44;;;-141.97;37.70
7018;BME280;3549;42.162;24.726;2023-03-25T16:00:44;47592.13;;;-141.97;38.16
7018;BME280;3549;42.162;24.726;2023-03-25T16:03:14;47538.28;;;-141.97;38.57